Time;durP1;ratioP1;P1;durP2;ratioP2;P2;SDS_P1;SDS_P2;PMS_P1;PMS_P2;Temp;Humidity;BMP_temperature;BMP_pressure;BME280_temperature;BME280_humidity;BME280_pressure;Samples;Min_cycle;Max_cycle;Signal;HPM_P1;HPM_P2
2023/06/19 00:02:14;;;;;;;10.05;4.40;;;;;;;22.55;61.48;100592.88;5022728;28;20095;-74
2023/06/19 00:04:40;;;;;;;5.43;4.00;;;;;;;22.54;61.55;100596.53;5002705;28;20057;-74
2023/06/19 00:07:06;;;;;;;6.07;4.43;;;;;;;22.55;61.72;100606.09;5010926;28;21381;-74
2023/06/19 00:09:32;;;;;;;6.20;4.28;;;;;;;22.52;62.12;100594.13;5010153;28;20065;-74
2023/06/19 00:11:59;;;;;;;8.98;4.70;;;;;;;22.46;62.29;100595.09;5009497;28;20041;-73
2023/06/19 00:14:25;;;;;;;4.30;3.83;;;;;;;22.41;62.54;100581.81;5025095;28;20054;-74
2023/06/19 00:16:51;;;;;;;5.13;3.90;;;;;;;22.25;63.00;100591.34;5029515;28;20132;-74
2023/06/19 00:19:17;;;;;;;9.23;4.65;;;;;;;22.22;62.99;100598.91;4996478;28;20042;-74
2023/06/19 00:21:43;;;;;;;6.10;4.30;;;;;;;22.22;62.98;100596.25;4991428;28;20043;-74
2023/06/19 00:24:09;;;;;;;6.80;5.00;;;;;;;22.22;63.09;100594.41;4989270;28;20054;-74
2023/06/19 00:26:35;;;;;;;9.50;4.07;;;;;;;22.19;62.90;100592.25;4987281;28;20041;-74
2023/06/19 00:29:00;;;;;;;6.25;4.30;;;;;;;22.12;63.40;100608.25;4985048;28;20389;-73
2023/06/19 00:31:27;;;;;;;9.65;4.00;;;;;;;22.08;63.51;100606.31;4987770;28;20437;-74
2023/06/19 00:33:54;;;;;;;9.23;4.20;;;;;;;22.03;63.75;100606.22;4988268;28;20097;-73
2023/06/19 00:36:20;;;;;;;7.68;3.92;;;;;;;21.95;64.01;100607.41;4996776;28;20093;-74
2023/06/19 00:38:47;;;;;;;5.38;3.70;;;;;;;21.89;64.39;100617.06;4984488;28;20038;-74
2023/06/19 00:41:14;;;;;;;6.30;4.28;;;;;;;21.82;64.78;100620.88;5016180;28;20040;-74
2023/06/19 00:43:41;;;;;;;5.78;4.28;;;;;;;21.76;65.37;100620.78;4983230;28;20125;-74
2023/06/19 00:46:07;;;;;;;7.93;4.45;;;;;;;21.74;65.21;100616.78;4986108;28;20037;-74
2023/06/19 00:48:34;;;;;;;5.63;4.22;;;;;;;21.71;65.35;100622.53;4982098;28;20043;-73
2023/06/19 00:50:59;;;;;;;6.55;4.18;;;;;;;21.65;66.19;100628.75;5003934;28;20489;-74
2023/06/19 00:53:29;;;;;;;5.30;3.72;;;;;;;21.58;66.08;100634.13;4987694;28;20129;-74
2023/06/19 00:55:57;;;;;;;7.00;4.70;;;;;;;21.53;66.39;100631.38;5001789;28;20041;-74
2023/06/19 00:58:24;;;;;;;6.72;4.13;;;;;;;21.50;66.48;100631.88;4984769;28;20141;-74
2023/06/19 01:00:50;;;;;;;6.18;4.28;;;;;;;21.46;66.89;100628.88;5005954;28;20100;-74
2023/06/19 01:03:16;;;;;;;9.07;4.57;;;;;;;21.41;67.19;100627.94;5019653;28;20030;-74
2023/06/19 01:05:47;;;;;;;8.50;4.68;;;;;;;21.34;67.37;100623.59;5024174;28;20018;-74
2023/06/19 01:08:39;;;;;;;8.80;4.65;;;;;;;21.24;67.97;100627.84;5017392;28;20042;-74
2023/06/19 01:11:05;;;;;;;8.95;4.75;;;;;;;21.14;68.23;100621.31;4999300;28;20470;-74
2023/06/19 01:13:36;;;;;;;6.65;4.15;;;;;;;21.10;68.27;100630.72;5015208;28;20072;-73
2023/06/19 01:16:03;;;;;;;8.07;4.03;;;;;;;21.10;68.42;100627.31;4983217;28;20045;-74
2023/06/19 01:18:30;;;;;;;5.18;3.85;;;;;;;21.07;68.38;100628.53;4982166;28;20815;-73
2023/06/19 01:20:56;;;;;;;5.80;4.20;;;;;;;21.02;68.99;100630.25;4984892;28;20022;-74
2023/06/19 01:23:21;;;;;;;6.72;4.68;;;;;;;20.98;68.86;100633.38;4987549;28;20056;-73
2023/06/19 01:25:47;;;;;;;9.85;4.43;;;;;;;20.88;69.25;100630.50;4990419;28;20440;-74
2023/06/19 01:28:13;;;;;;;8.65;4.32;;;;;;;20.81;69.78;100627.16;5002818;28;20037;-73
2023/06/19 01:30:41;;;;;;;4.82;3.75;;;;;;;20.76;69.96;100624.44;4990645;28;20489;-73
2023/06/19 01:33:15;;;;;;;5.75;4.20;;;;;;;20.73;70.58;100627.50;4990337;28;20065;-74
2023/06/19 01:35:43;;;;;;;10.43;4.57;;;;;;;20.75;70.59;100626.22;5020086;28;20030;-75
2023/06/19 01:38:10;;;;;;;5.38;4.47;;;;;;;20.78;70.80;100630.25;4989908;28;20109;-73
2023/06/19 01:40:36;;;;;;;6.93;4.50;;;;;;;20.78;70.82;100638.16;4972935;28;20033;-74
2023/06/19 01:43:04;;;;;;;6.95;4.30;;;;;;;20.76;71.17;100640.22;4987448;28;20046;-74
2023/06/19 01:45:30;;;;;;;5.25;4.03;;;;;;;20.75;71.44;100636.78;4991367;28;20040;-73
2023/06/19 01:47:56;;;;;;;6.72;4.68;;;;;;;20.75;71.55;100644.69;4988265;28;20023;-74
2023/06/19 01:50:23;;;;;;;5.95;3.97;;;;;;;20.73;71.59;100643.31;4994026;28;20053;-72
2023/06/19 01:52:50;;;;;;;8.00;4.00;;;;;;;20.72;71.93;100642.50;4993390;28;20120;-73
2023/06/19 01:55:16;;;;;;;5.00;4.03;;;;;;;20.74;71.77;100647.56;5021305;28;20057;-73
2023/06/19 01:57:42;;;;;;;7.40;4.63;;;;;;;20.71;72.29;100651.44;4993555;28;20037;-74
2023/06/19 02:00:10;;;;;;;6.15;3.90;;;;;;;20.74;72.56;100644.94;4987224;28;20035;-74
2023/06/19 02:02:39;;;;;;;6.97;4.20;;;;;;;20.74;72.33;100652.84;4994775;28;20129;-72
2023/06/19 02:05:08;;;;;;;5.88;4.30;;;;;;;20.74;72.23;100652.84;5013703;28;20041;-73
2023/06/19 02:07:36;;;;;;;7.18;4.50;;;;;;;20.77;72.12;100662.91;5006819;28;20403;-73
2023/06/19 02:10:02;;;;;;;6.07;4.78;;;;;;;20.75;71.57;100668.38;5018724;28;20040;-73
2023/06/19 02:12:28;;;;;;;8.30;5.07;;;;;;;20.79;70.26;100666.94;4991791;28;20033;-73
2023/06/19 02:14:54;;;;;;;8.18;5.20;;;;;;;20.86;69.46;100679.19;4995605;28;20042;-72
2023/06/19 02:17:20;;;;;;;5.95;4.30;;;;;;;20.93;68.77;100683.31;5025621;28;20041;-72
2023/06/19 02:19:45;;;;;;;7.72;3.97;;;;;;;21.04;68.53;100686.19;4994612;28;20662;-73
2023/06/19 02:22:11;;;;;;;5.93;4.10;;;;;;;21.07;68.02;100694.44;4990276;28;20547;-73
2023/06/19 02:24:37;;;;;;;8.70;4.28;;;;;;;21.27;67.75;100693.31;4993753;28;20034;-73
2023/06/19 02:27:05;;;;;;;6.32;4.05;;;;;;;21.33;67.77;100693.19;4985840;28;20061;-73
2023/06/19 02:29:30;;;;;;;5.55;3.13;;;;;;;21.38;67.79;100693.31;5022365;28;20057;-72
2023/06/19 02:31:56;;;;;;;4.97;3.58;;;;;;;21.29;68.21;100702.59;4991471;28;20413;-74
2023/06/19 02:34:24;;;;;;;6.97;3.38;;;;;;;21.35;68.63;100706.94;5013156;28;20045;-73
2023/06/19 02:36:49;;;;;;;4.82;3.03;;;;;;;21.30;68.97;100700.75;5005029;28;20041;-72
2023/06/19 02:39:15;;;;;;;4.78;3.38;;;;;;;21.29;69.12;100701.81;4998220;28;20576;-72
2023/06/19 02:41:45;;;;;;;5.18;3.47;;;;;;;21.27;69.49;100695.97;4988411;28;20045;-72
2023/06/19 02:44:11;;;;;;;6.22;3.22;;;;;;;21.36;69.22;100707.75;4985315;28;20124;-73
2023/06/19 02:46:37;;;;;;;3.72;2.80;;;;;;;21.27;69.63;100707.28;4986231;28;20062;-72
2023/06/19 02:49:02;;;;;;;5.38;3.10;;;;;;;21.16;70.24;100706.25;5018741;28;20650;-72
2023/06/19 02:51:31;;;;;;;4.60;2.78;;;;;;;21.19;70.55;100715.53;4987074;28;20042;-72
2023/06/19 02:53:56;;;;;;;4.15;3.10;;;;;;;21.06;70.76;100716.56;5002984;28;20116;-71
2023/06/19 02:56:22;;;;;;;4.90;3.42;;;;;;;20.97;71.22;100715.28;4990295;28;20517;-73
2023/06/19 02:58:48;;;;;;;5.32;3.17;;;;;;;20.97;71.81;100723.19;5004028;28;20074;-73
2023/06/19 03:01:13;;;;;;;5.93;3.20;;;;;;;21.00;71.98;100718.28;4987516;28;20049;-72
2023/06/19 03:03:40;;;;;;;5.45;3.63;;;;;;;20.89;72.32;100708.53;5017132;28;20050;-72
2023/06/19 03:06:08;;;;;;;4.15;3.03;;;;;;;20.87;72.70;100707.94;4988680;28;20034;-72
2023/06/19 03:08:34;;;;;;;4.97;3.60;;;;;;;20.84;73.00;100711.03;4990156;28;20449;-72
2023/06/19 03:11:00;;;;;;;4.13;3.08;;;;;;;20.82;73.20;100726.25;4989887;28;20396;-73
2023/06/19 03:13:25;;;;;;;3.38;2.72;;;;;;;20.74;73.57;100732.66;4989781;28;20050;-72
2023/06/19 03:15:51;;;;;;;6.80;3.60;;;;;;;20.67;74.53;100739.84;5016724;28;20031;-72
2023/06/19 03:18:16;;;;;;;5.30;3.15;;;;;;;20.58;74.99;100743.78;5005041;28;20026;-72
2023/06/19 03:20:42;;;;;;;4.15;3.20;;;;;;;20.71;74.87;100745.47;4970131;28;20030;-73
2023/06/19 03:23:07;;;;;;;4.38;2.88;;;;;;;20.58;75.35;100741.16;4978656;28;20034;-72
2023/06/19 03:25:34;;;;;;;3.67;2.30;;;;;;;20.64;75.49;100750.81;4970186;28;20041;-72
2023/06/19 03:28:02;;;;;;;4.15;2.80;;;;;;;20.56;75.84;100749.28;4986464;28;20972;-72
2023/06/19 03:30:28;;;;;;;6.93;2.45;;;;;;;20.42;76.98;100750.50;4982287;28;20048;-73
2023/06/19 03:32:53;;;;;;;4.47;2.90;;;;;;;20.39;77.12;100758.81;4988273;28;20393;-73
2023/06/19 03:35:35;;;;;;;4.75;2.72;;;;;;;20.33;77.49;100771.06;5006845;28;20516;-72
2023/06/19 03:38:01;;;;;;;4.88;2.90;;;;;;;20.35;77.74;100773.47;5002550;28;21288;-72
2023/06/19 03:40:28;;;;;;;5.85;3.20;;;;;;;20.22;78.22;100777.84;5018767;28;20096;-72
2023/06/19 03:42:54;;;;;;;3.45;2.33;;;;;;;20.25;78.57;100783.69;5019619;28;20030;-72
2023/06/19 03:45:21;;;;;;;4.63;3.13;;;;;;;20.14;78.88;100796.59;5003396;28;20050;-73
2023/06/19 03:47:50;;;;;;;5.95;3.10;;;;;;;20.11;79.20;100783.84;5005485;28;20042;-72
2023/06/19 03:50:15;;;;;;;3.85;2.60;;;;;;;19.99;79.96;100796.16;4981462;28;20052;-72
2023/06/19 03:52:41;;;;;;;4.32;2.85;;;;;;;20.05;79.68;100799.72;5020236;28;20022;-72
2023/06/19 03:55:07;;;;;;;4.07;2.65;;;;;;;19.93;80.15;100802.25;4990455;28;20047;-72
2023/06/19 03:57:34;;;;;;;4.95;2.47;;;;;;;19.91;80.50;100793.78;4988353;28;20056;-72
2023/06/19 03:59:59;;;;;;;5.88;2.85;;;;;;;19.98;80.23;100807.69;5019826;28;20090;-73
2023/06/19 04:02:25;;;;;;;4.28;2.88;;;;;;;19.97;80.38;100808.72;5007367;28;20041;-72
2023/06/19 04:04:51;;;;;;;4.00;2.70;;;;;;;19.85;80.96;100803.34;5032585;28;20061;-72
2023/06/19 04:07:17;;;;;;;3.35;2.42;;;;;;;19.90;80.82;100800.88;5004055;28;20034;-72
2023/06/19 04:09:46;;;;;;;5.75;3.47;;;;;;;19.87;80.93;100803.13;5019772;28;20432;-72
2023/06/19 04:12:11;;;;;;;3.45;2.42;;;;;;;19.89;81.36;100807.19;5005847;28;20057;-73
2023/06/19 04:14:37;;;;;;;7.32;2.67;;;;;;;19.88;81.33;100804.75;5022464;28;20053;-72
2023/06/19 04:17:02;;;;;;;3.63;2.42;;;;;;;19.84;81.56;100807.00;5006131;28;20026;-72
2023/06/19 04:19:28;;;;;;;4.03;2.78;;;;;;;19.86;81.87;100815.50;5023883;28;20416;-72
2023/06/19 04:21:54;;;;;;;3.58;2.58;;;;;;;19.92;81.79;100821.72;5006251;28;20062;-72
2023/06/19 04:24:20;;;;;;;3.63;2.65;;;;;;;19.90;81.92;100826.38;4988390;28;20051;-72
2023/06/19 04:26:45;;;;;;;4.03;2.40;;;;;;;19.86;82.21;100830.47;4991334;28;20038;-73
2023/06/19 04:29:16;;;;;;;4.55;2.70;;;;;;;19.88;81.99;100828.44;5009265;28;20049;-72
2023/06/19 04:31:46;;;;;;;4.47;2.55;;;;;;;19.85;82.64;100819.13;5004334;28;20680;-71
2023/06/19 04:34:17;;;;;;;3.80;2.55;;;;;;;19.80;82.75;100840.03;5006658;28;20046;-72
2023/06/19 04:36:42;;;;;;;3.63;2.70;;;;;;;19.80;83.01;100846.09;5018001;28;20502;-73
2023/06/19 04:39:08;;;;;;;6.88;2.67;;;;;;;19.89;82.83;100841.38;5012380;28;20054;-72
2023/06/19 04:41:43;;;;;;;3.45;2.60;;;;;;;19.84;83.24;100842.00;5005576;28;20068;-72
2023/06/19 04:44:11;;;;;;;5.60;2.50;;;;;;;20.02;82.85;100838.63;5005037;28;20405;-72
2023/06/19 04:46:37;;;;;;;4.30;2.20;;;;;;;20.04;82.57;100841.00;5010695;28;20041;-72
2023/06/19 04:49:03;;;;;;;5.32;2.92;;;;;;;20.00;82.61;100842.47;5003982;28;20042;-73
2023/06/19 04:51:32;;;;;;;4.30;2.42;;;;;;;20.10;82.29;100853.31;5005244;28;20105;-72
2023/06/19 04:53:58;;;;;;;3.65;2.42;;;;;;;20.00;82.76;100855.63;5003399;28;20033;-72
2023/06/19 04:56:24;;;;;;;5.68;2.72;;;;;;;20.06;82.80;100849.53;5009018;28;20033;-72
2023/06/19 04:58:51;;;;;;;4.07;2.63;;;;;;;20.04;82.96;100854.16;5006697;28;20053;-72
2023/06/19 05:01:17;;;;;;;3.63;2.53;;;;;;;20.00;83.09;100860.88;5020850;28;20034;-72
2023/06/19 05:03:45;;;;;;;5.13;2.50;;;;;;;20.02;83.07;100869.38;5006243;28;20064;-71
2023/06/19 05:06:11;;;;;;;5.15;2.75;;;;;;;20.08;83.38;100868.53;5005962;28;20115;-72
2023/06/19 05:08:37;;;;;;;3.80;2.25;;;;;;;20.09;83.12;100872.75;5025641;28;20464;-73
2023/06/19 05:11:02;;;;;;;3.47;2.10;;;;;;;20.05;83.34;100874.22;5015401;28;20148;-72
2023/06/19 05:13:28;;;;;;;4.63;2.22;;;;;;;20.06;83.52;100867.94;5008974;28;20049;-73
2023/06/19 05:15:53;;;;;;;4.40;2.30;;;;;;;20.19;82.67;100870.44;4990948;28;20030;-73
2023/06/19 05:18:19;;;;;;;3.80;2.53;;;;;;;20.21;82.47;100872.84;4991003;28;20062;-72
2023/06/19 05:20:47;;;;;;;4.10;1.92;;;;;;;20.23;82.27;100870.81;4984877;28;20034;-71
2023/06/19 05:23:12;;;;;;;4.22;2.42;;;;;;;20.18;82.51;100868.03;4984254;28;20563;-73
2023/06/19 05:25:38;;;;;;;4.72;2.00;;;;;;;20.30;82.27;100870.72;4998305;28;20034;-73
2023/06/19 05:28:03;;;;;;;2.67;1.85;;;;;;;20.25;82.13;100863.50;4984551;28;20092;-72
2023/06/19 05:30:29;;;;;;;3.63;2.00;;;;;;;20.18;82.81;100865.38;4989340;28;20129;-73
2023/06/19 05:32:54;;;;;;;3.88;2.20;;;;;;;20.19;82.74;100875.72;4989845;28;20492;-73
2023/06/19 05:35:20;;;;;;;7.43;2.40;;;;;;;20.28;82.84;100873.56;5010214;28;20053;-72
2023/06/19 05:37:45;;;;;;;3.35;2.33;;;;;;;20.26;82.59;100872.19;5007567;28;20040;-72
2023/06/19 05:40:11;;;;;;;3.42;2.20;;;;;;;20.28;81.82;100872.78;5005606;28;20046;-73
2023/06/19 05:42:37;;;;;;;3.22;1.98;;;;;;;20.30;82.11;100874.16;5008695;28;20359;-73
2023/06/19 05:45:03;;;;;;;5.28;2.35;;;;;;;20.35;81.57;100878.78;5003955;28;20122;-73
2023/06/19 05:47:30;;;;;;;4.97;2.10;;;;;;;20.32;82.12;100882.63;5003251;28;20552;-74
2023/06/19 05:49:59;;;;;;;4.85;2.03;;;;;;;20.32;82.35;100879.22;5025347;28;20056;-72
2023/06/19 05:52:24;;;;;;;4.35;2.35;;;;;;;20.32;82.10;100892.38;5006441;28;20516;-72
2023/06/19 05:54:50;;;;;;;5.30;2.00;;;;;;;20.49;81.87;100895.25;5008413;28;20057;-73
2023/06/19 05:57:18;;;;;;;5.03;2.30;;;;;;;20.42;81.83;100892.69;5006787;28;20073;-72
2023/06/19 05:59:44;;;;;;;3.00;2.20;;;;;;;20.48;81.85;100896.28;5024134;28;20050;-72
2023/06/19 06:02:09;;;;;;;6.93;2.80;;;;;;;20.45;81.91;100904.59;4984912;28;20039;-71
2023/06/19 06:04:36;;;;;;;3.80;2.17;;;;;;;20.54;81.45;100908.56;4999715;28;20045;-72
2023/06/19 06:07:01;;;;;;;5.22;1.83;;;;;;;20.53;81.88;100905.13;5006192;28;20068;-73
2023/06/19 06:09:27;;;;;;;2.22;1.60;;;;;;;20.52;81.64;100911.41;5004708;28;20476;-72
2023/06/19 06:11:52;;;;;;;3.38;2.00;;;;;;;20.63;81.46;100909.13;5001754;28;20107;-72
2023/06/19 06:14:18;;;;;;;4.80;1.92;;;;;;;20.62;81.36;100913.56;5004927;28;20069;-73
2023/06/19 06:16:43;;;;;;;5.90;2.60;;;;;;;20.65;80.88;100912.34;5007483;28;20514;-73
2023/06/19 06:19:09;;;;;;;2.38;1.80;;;;;;;20.55;81.70;100916.25;5015990;28;20124;-72
2023/06/19 06:21:37;;;;;;;6.97;1.95;;;;;;;20.59;83.37;100921.88;5008544;28;20119;-72
2023/06/19 06:24:03;;;;;;;4.60;2.33;;;;;;;20.61;84.66;100923.28;4986921;28;20094;-72
2023/06/19 06:26:28;;;;;;;6.75;2.15;;;;;;;20.68;85.34;100922.41;5008572;28;20036;-72
2023/06/19 06:28:55;;;;;;;4.93;2.42;;;;;;;20.54;87.60;100925.16;4986175;28;20050;-72
2023/06/19 06:31:22;;;;;;;4.68;2.20;;;;;;;20.42;89.46;100925.09;4989340;28;20040;-73
2023/06/19 06:33:48;;;;;;;4.03;2.53;;;;;;;20.48;89.58;100928.69;4993600;28;20042;-73
2023/06/19 06:36:15;;;;;;;4.70;2.25;;;;;;;20.50;88.99;100933.72;5013058;28;20659;-73
2023/06/19 06:38:40;;;;;;;5.38;2.40;;;;;;;20.49;89.26;100930.28;5001037;28;20043;-73
2023/06/19 06:41:06;;;;;;;8.27;2.05;;;;;;;20.67;87.80;100926.88;4988964;28;20390;-73
2023/06/19 06:43:32;;;;;;;3.35;2.28;;;;;;;20.74;87.84;100940.00;4993153;28;20050;-73
2023/06/19 06:45:57;;;;;;;4.50;2.40;;;;;;;20.87;87.66;100944.28;5017123;28;20037;-73
2023/06/19 06:48:22;;;;;;;3.58;2.33;;;;;;;20.96;86.10;100948.22;4990511;28;20038;-75
2023/06/19 06:50:48;;;;;;;7.22;3.97;;;;;;;21.04;85.69;100949.75;4991838;28;20041;-72
2023/06/19 06:53:13;;;;;;;3.50;2.38;;;;;;;21.19;84.86;100955.44;5019277;28;20038;-72
2023/06/19 06:55:39;;;;;;;7.25;2.50;;;;;;;21.31;83.83;100964.22;4989726;28;20038;-72
2023/06/19 06:58:05;;;;;;;3.85;2.60;;;;;;;21.18;85.23;100969.66;4992870;28;20081;-72
2023/06/19 07:00:30;;;;;;;5.93;2.55;;;;;;;21.05;87.64;100975.09;5020573;28;20034;-73
2023/06/19 07:02:56;;;;;;;5.22;2.58;;;;;;;20.84;90.05;100976.38;5003389;28;20029;-73
2023/06/19 07:05:22;;;;;;;6.75;2.33;;;;;;;20.69;93.48;100987.25;5037900;28;20761;-73
2023/06/19 07:07:48;;;;;;;6.47;2.40;;;;;;;20.71;95.01;100983.38;5010343;28;20034;-72
2023/06/19 07:10:16;;;;;;;4.18;2.40;;;;;;;20.91;95.93;100983.16;5009481;28;20046;-73
2023/06/19 07:12:46;;;;;;;3.40;2.40;;;;;;;20.77;96.75;100981.69;5023654;28;20433;-73
2023/06/19 07:15:12;;;;;;;4.95;2.60;;;;;;;20.69;97.29;100989.91;5009487;28;20049;-73
2023/06/19 07:17:37;;;;;;;5.43;2.78;;;;;;;20.70;96.63;100992.31;5008829;28;20038;-73
2023/06/19 07:20:04;;;;;;;2.97;2.13;;;;;;;20.73;96.69;100989.22;5006475;28;20570;-73
2023/06/19 07:22:29;;;;;;;6.82;3.00;;;;;;;20.87;96.50;100981.19;5024530;28;20049;-73
2023/06/19 07:24:55;;;;;;;3.20;2.63;;;;;;;21.10;94.12;100970.78;5012109;28;20042;-73
2023/06/19 07:27:20;;;;;;;3.67;2.33;;;;;;;21.77;91.70;100983.09;5005443;28;20100;-73
2023/06/19 07:29:46;;;;;;;5.22;3.00;;;;;;;22.23;86.24;100986.84;5029123;28;20030;-72
2023/06/19 07:32:14;;;;;;;4.00;2.75;;;;;;;22.67;84.45;100978.56;5003537;28;20445;-74
2023/06/19 07:34:40;;;;;;;7.03;2.63;;;;;;;23.00;82.27;100985.06;5007093;28;20492;-73
2023/06/19 07:37:05;;;;;;;4.10;2.30;;;;;;;22.89;81.06;100979.56;5011527;28;20041;-73
2023/06/19 07:39:31;;;;;;;3.75;2.42;;;;;;;23.36;78.72;100983.94;5010843;28;20520;-73
2023/06/19 07:41:56;;;;;;;4.28;2.80;;;;;;;23.58;76.20;100988.53;5009898;28;20029;-72
2023/06/19 07:44:22;;;;;;;4.80;2.55;;;;;;;23.85;73.16;100986.13;5006179;28;20053;-73
2023/06/19 07:46:50;;;;;;;5.10;2.47;;;;;;;24.24;71.20;100972.94;5023867;28;20661;-73
2023/06/19 07:49:16;;;;;;;3.97;2.40;;;;;;;24.80;69.02;100971.06;4999187;28;20073;-73
2023/06/19 07:51:41;;;;;;;6.57;2.63;;;;;;;25.28;65.63;100966.06;4986651;28;20434;-73
2023/06/19 07:54:07;;;;;;;7.13;2.40;;;;;;;25.62;65.37;100979.94;5010037;28;20076;-72
2023/06/19 07:56:33;;;;;;;7.07;2.65;;;;;;;26.02;63.18;100972.56;5022509;28;20039;-72
2023/06/19 07:58:58;;;;;;;3.55;2.28;;;;;;;25.97;62.20;100975.97;5004196;28;20040;-72
2023/06/19 08:01:24;;;;;;;7.65;3.00;;;;;;;25.80;62.95;100968.09;5003913;28;20400;-73
2023/06/19 08:03:49;;;;;;;3.42;2.47;;;;;;;25.83;62.51;100972.91;5031965;28;20049;-72
2023/06/19 08:06:15;;;;;;;6.88;2.13;;;;;;;25.64;63.11;100979.69;5023805;28;20033;-73
2023/06/19 08:08:40;;;;;;;6.53;2.28;;;;;;;25.55;63.45;100959.94;5004416;28;20046;-72
2023/06/19 08:11:06;;;;;;;7.03;2.50;;;;;;;25.82;62.10;100962.56;5005284;28;20044;-73
2023/06/19 08:13:31;;;;;;;3.65;2.42;;;;;;;25.41;61.97;100965.66;5002098;28;20041;-72
2023/06/19 08:15:57;;;;;;;8.68;2.20;;;;;;;25.17;63.20;100967.78;5009014;28;20501;-73
2023/06/19 08:18:22;;;;;;;4.90;2.10;;;;;;;24.80;62.90;100965.75;5004333;28;20167;-72
2023/06/19 08:20:48;;;;;;;5.03;2.75;;;;;;;24.62;63.03;100972.19;5014051;28;20036;-73
2023/06/19 08:23:13;;;;;;;3.05;2.10;;;;;;;24.58;63.41;100972.91;5006130;28;20042;-72
2023/06/19 08:25:39;;;;;;;6.82;2.20;;;;;;;24.79;63.29;100968.66;5008368;28;20064;-73
2023/06/19 08:28:08;;;;;;;5.50;2.40;;;;;;;24.88;63.48;100961.88;5007906;28;20035;-72
2023/06/19 08:30:33;;;;;;;3.50;2.10;;;;;;;24.70;63.68;100962.22;5029868;28;20121;-72
2023/06/19 08:32:59;;;;;;;5.85;2.13;;;;;;;24.40;63.48;100974.78;5007203;28;20040;-72
2023/06/19 08:35:24;;;;;;;9.48;2.17;;;;;;;24.29;63.84;100973.81;5010308;28;20098;-73
2023/06/19 08:37:50;;;;;;;4.10;2.00;;;;;;;24.32;64.21;100974.38;5008170;28;20436;-73
2023/06/19 08:40:15;;;;;;;4.78;2.40;;;;;;;24.51;62.95;100981.03;5009344;28;20435;-73
2023/06/19 08:42:43;;;;;;;4.53;2.38;;;;;;;24.72;62.19;100976.81;5009364;28;20041;-73
2023/06/19 08:45:09;;;;;;;2.85;1.70;;;;;;;25.00;61.71;100967.06;5007137;28;20042;-73
2023/06/19 08:47:37;;;;;;;7.28;2.25;;;;;;;25.32;59.04;100972.47;5014990;28;20088;-73
2023/06/19 08:50:03;;;;;;;6.53;2.75;;;;;;;25.62;59.60;100968.50;5020178;28;20046;-73
2023/06/19 08:52:28;;;;;;;6.00;2.40;;;;;;;25.93;57.70;100969.56;5007099;28;20707;-73
2023/06/19 08:54:54;;;;;;;4.05;2.10;;;;;;;25.99;56.99;100973.88;5004812;28;20042;-73
2023/06/19 08:57:19;;;;;;;4.88;2.08;;;;;;;26.20;55.69;100971.34;5000253;28;20029;-73
2023/06/19 08:59:51;;;;;;;3.65;2.25;;;;;;;26.71;54.45;100976.97;5030610;28;20041;-73
2023/06/19 09:02:17;;;;;;;3.63;2.10;;;;;;;26.75;53.78;100979.91;4999113;28;20046;-72
2023/06/19 09:04:43;;;;;;;3.47;2.28;;;;;;;26.73;53.55;100977.50;4982575;28;20068;-73
2023/06/19 09:07:12;;;;;;;9.55;2.80;;;;;;;26.97;53.57;100975.22;5005359;28;20057;-72
2023/06/19 09:09:47;;;;;;;2.95;2.00;;;;;;;27.26;52.11;100979.28;5008103;28;20041;-73
2023/06/19 09:12:23;;;;;;;5.40;2.03;;;;;;;27.27;52.86;100986.19;5011403;28;20805;-73
2023/06/19 09:14:59;;;;;;;5.75;2.42;;;;;;;27.00;52.36;100982.66;5002792;28;20056;-73
2023/06/19 09:17:26;;;;;;;4.93;2.38;;;;;;;26.43;54.03;100980.78;5002951;28;20042;-73
2023/06/19 09:19:57;;;;;;;6.13;3.13;;;;;;;26.41;54.22;100985.56;5023189;28;20053;-72
2023/06/19 09:22:24;;;;;;;4.70;2.47;;;;;;;26.22;54.58;100995.81;5022793;28;20172;-72
2023/06/19 09:24:50;;;;;;;4.53;2.38;;;;;;;26.02;53.76;100991.94;5025018;28;20049;-73
2023/06/19 09:27:19;;;;;;;5.43;2.20;;;;;;;26.54;52.25;100997.56;5005846;28;20072;-73
2023/06/19 09:29:47;;;;;;;4.13;2.72;;;;;;;26.43;51.67;100996.75;5002522;28;20042;-73
2023/06/19 09:32:22;;;;;;;3.75;2.38;;;;;;;26.20;51.73;101006.69;5004528;28;20040;-73
2023/06/19 09:34:50;;;;;;;4.13;2.50;;;;;;;26.70;51.84;100998.50;5007181;28;20049;-73
2023/06/19 09:37:25;;;;;;;5.75;3.10;;;;;;;27.19;50.88;100996.25;5021837;28;20046;-72
2023/06/19 09:40:10;;;;;;;6.05;2.40;;;;;;;27.75;48.98;100998.22;5007690;28;20056;-72
2023/06/19 09:42:38;;;;;;;5.65;2.78;;;;;;;28.07;46.80;101001.72;5016576;28;20513;-73
2023/06/19 09:45:18;;;;;;;4.15;2.45;;;;;;;28.38;46.46;101007.78;4989308;28;20029;-72
2023/06/19 09:47:46;;;;;;;9.15;3.92;;;;;;;28.88;45.25;101003.38;5004962;28;20540;-74
2023/06/19 09:50:16;;;;;;;5.10;2.80;;;;;;;28.92;44.69;101004.41;5005798;28;20431;-72
2023/06/19 09:52:46;;;;;;;3.58;2.92;;;;;;;28.77;45.13;101009.81;5005915;28;20177;-72
2023/06/19 09:55:13;;;;;;;5.05;2.83;;;;;;;28.84;44.08;100994.31;5011289;28;20053;-74
2023/06/19 09:57:40;;;;;;;6.82;3.40;;;;;;;28.77;44.45;100995.69;5007629;28;20029;-73
2023/06/19 10:00:12;;;;;;;6.05;2.97;;;;;;;28.67;45.36;101009.84;5010687;28;20060;-73
2023/06/19 10:02:41;;;;;;;5.50;3.45;;;;;;;28.66;43.62;101003.72;5026439;28;20397;-73
2023/06/19 10:05:12;;;;;;;6.47;3.15;;;;;;;29.07;43.70;101011.56;5010080;28;20045;-73
2023/06/19 10:07:40;;;;;;;8.43;3.42;;;;;;;29.21;43.72;101005.63;5017846;28;20034;-73
2023/06/19 10:10:08;;;;;;;4.10;2.60;;;;;;;29.46;42.67;101005.47;5013963;28;20065;-72
2023/06/19 10:12:42;;;;;;;4.63;3.28;;;;;;;29.02;43.25;101008.13;5012945;28;20033;-74
2023/06/19 10:15:17;;;;;;;9.70;3.25;;;;;;;29.35;43.08;101011.97;5011252;28;20049;-73
2023/06/19 10:18:07;;;;;;;4.22;2.60;;;;;;;29.42;41.91;101000.94;4999543;28;20042;-74
2023/06/19 10:20:43;;;;;;;3.67;2.88;;;;;;;29.61;41.86;101001.91;5008791;28;20125;-74
2023/06/19 10:23:20;;;;;;;4.72;3.25;;;;;;;29.62;41.34;101008.03;5006773;28;20488;-74
2023/06/19 10:25:49;;;;;;;5.20;3.13;;;;;;;29.66;42.41;100998.38;5008702;28;20030;-74
2023/06/19 10:28:18;;;;;;;4.85;3.45;;;;;;;29.74;41.52;101005.81;5008013;28;20041;-74
2023/06/19 10:30:43;;;;;;;6.32;3.13;;;;;;;29.69;40.47;100989.81;5012296;28;20477;-73
2023/06/19 10:33:09;;;;;;;7.45;3.80;;;;;;;29.94;41.65;100996.03;5012146;28;20060;-73
2023/06/19 10:35:41;;;;;;;10.73;5.15;;;;;;;30.05;40.52;100997.53;4994165;28;20030;-73
2023/06/19 10:38:16;;;;;;;7.93;4.43;;;;;;;29.82;39.36;100989.19;5023763;28;20560;-73
2023/06/19 10:40:42;;;;;;;4.78;3.45;;;;;;;29.44;40.66;100983.59;5007074;28;20076;-73
2023/06/19 10:43:07;;;;;;;6.38;3.55;;;;;;;29.29;41.59;100986.34;5023568;28;20048;-73
2023/06/19 10:45:33;;;;;;;4.50;3.30;;;;;;;29.53;41.97;100991.78;5009506;28;20026;-73
2023/06/19 10:48:04;;;;;;;4.65;3.30;;;;;;;29.60;41.81;100986.94;5012379;28;20092;-73
2023/06/19 10:50:35;;;;;;;6.32;3.60;;;;;;;29.51;41.87;100981.38;5011118;28;20080;-73
2023/06/19 10:53:04;;;;;;;5.93;3.67;;;;;;;29.57;40.74;100992.81;5010405;28;20037;-73
2023/06/19 10:55:30;;;;;;;6.00;3.20;;;;;;;29.75;40.16;100986.03;5007920;28;20127;-73
2023/06/19 10:57:55;;;;;;;7.20;4.10;;;;;;;29.74;40.23;100984.44;5009612;28;20679;-74
2023/06/19 11:00:29;;;;;;;6.38;3.70;;;;;;;29.43;40.37;100984.66;5023537;28;20057;-73
2023/06/19 11:02:58;;;;;;;5.57;3.60;;;;;;;29.85;39.13;100980.59;5007950;28;20045;-73
2023/06/19 11:05:28;;;;;;;9.07;4.35;;;;;;;29.77;40.22;100981.22;5043749;28;20405;-74
2023/06/19 11:07:56;;;;;;;5.35;3.67;;;;;;;29.62;40.04;100976.75;5012027;28;20503;-75
2023/06/19 11:10:23;;;;;;;4.15;3.13;;;;;;;29.75;41.33;100975.34;5011350;28;20622;-75
2023/06/19 11:12:52;;;;;;;7.72;3.72;;;;;;;30.06;39.07;100978.56;5014790;28;20025;-74
2023/06/19 11:15:18;;;;;;;7.22;3.47;;;;;;;30.20;37.93;100981.34;5008169;28;20511;-75
2023/06/19 11:17:44;;;;;;;4.63;3.30;;;;;;;30.02;37.30;100982.06;5012030;28;20041;-74
2023/06/19 11:20:16;;;;;;;5.57;3.85;;;;;;;30.18;37.99;100983.50;5009398;28;20052;-74
2023/06/19 11:22:41;;;;;;;5.00;3.45;;;;;;;29.88;38.14;100979.25;5008507;28;20042;-74
2023/06/19 11:25:09;;;;;;;5.68;3.65;;;;;;;29.38;37.39;100981.22;5009502;28;20049;-74